sensor_id;sensor_type;location;lat;lon;timestamp;P1;durP1;ratioP1;P2;durP2;ratioP2
52972;SDS011;38837;48.916;2.336;2023-06-10T00:00:47;7.35;;;5.90;;
52972;SDS011;38837;48.916;2.336;2023-06-10T00:02:49;7.78;;;5.82;;
52972;SDS011;38837;48.916;2.336;2023-06-10T00:04:51;6.50;;;5.70;;
52972;SDS011;38837;48.916;2.336;2023-06-10T00:06:53;6.95;;;5.68;;
52972;SDS011;38837;48.916;2.336;2023-06-10T00:08:56;6.32;;;5.68;;
52972;SDS011;38837;48.916;2.336;2023-06-10T00:10:58;7.82;;;6.47;;
52972;SDS011;38837;48.916;2.336;2023-06-10T00:13:00;7.28;;;5.95;;
52972;SDS011;38837;48.916;2.336;2023-06-10T00:15:06;8.35;;;5.60;;
52972;SDS011;38837;48.916;2.336;2023-06-10T00:17:09;6.75;;;5.55;;
52972;SDS011;38837;48.916;2.336;2023-06-10T00:19:12;9.68;;;5.97;;
52972;SDS011;38837;48.916;2.336;2023-06-10T00:21:17;9.55;;;6.22;;
52972;SDS011;38837;48.916;2.336;2023-06-10T00:23:20;9.82;;;6.35;;
52972;SDS011;38837;48.916;2.336;2023-06-10T00:25:23;8.35;;;6.05;;
52972;SDS011;38837;48.916;2.336;2023-06-10T00:27:24;7.05;;;5.50;;
52972;SDS011;38837;48.916;2.336;2023-06-10T00:29:32;8.68;;;6.25;;
52972;SDS011;38837;48.916;2.336;2023-06-10T00:31:36;7.88;;;5.90;;
52972;SDS011;38837;48.916;2.336;2023-06-10T00:33:40;7.25;;;5.70;;
52972;SDS011;38837;48.916;2.336;2023-06-10T00:35:42;8.45;;;5.75;;
52972;SDS011;38837;48.916;2.336;2023-06-10T00:37:44;7.15;;;5.78;;
52972;SDS011;38837;48.916;2.336;2023-06-10T00:39:46;9.35;;;5.60;;
52972;SDS011;38837;48.916;2.336;2023-06-10T00:41:48;8.00;;;5.95;;
52972;SDS011;38837;48.916;2.336;2023-06-10T00:43:50;6.55;;;5.55;;
52972;SDS011;38837;48.916;2.336;2023-06-10T00:45:52;7.60;;;5.88;;
52972;SDS011;38837;48.916;2.336;2023-06-10T00:47:55;7.10;;;5.78;;
52972;SDS011;38837;48.916;2.336;2023-06-10T00:49:57;7.68;;;5.05;;
52972;SDS011;38837;48.916;2.336;2023-06-10T00:52:00;7.53;;;5.50;;
52972;SDS011;38837;48.916;2.336;2023-06-10T00:56:06;9.63;;;6.20;;
52972;SDS011;38837;48.916;2.336;2023-06-10T00:58:08;8.88;;;6.47;;
52972;SDS011;38837;48.916;2.336;2023-06-10T01:00:11;6.72;;;5.30;;
52972;SDS011;38837;48.916;2.336;2023-06-10T01:02:14;8.50;;;5.82;;
52972;SDS011;38837;48.916;2.336;2023-06-10T01:04:17;7.47;;;4.90;;
52972;SDS011;38837;48.916;2.336;2023-06-10T01:08:57;8.05;;;5.57;;
52972;SDS011;38837;48.916;2.336;2023-06-10T01:11:07;9.07;;;5.22;;
52972;SDS011;38837;48.916;2.336;2023-06-10T01:13:13;6.00;;;5.15;;
52972;SDS011;38837;48.916;2.336;2023-06-10T01:15:16;6.57;;;5.30;;
52972;SDS011;38837;48.916;2.336;2023-06-10T01:17:19;7.07;;;5.55;;
52972;SDS011;38837;48.916;2.336;2023-06-10T01:19:21;6.13;;;5.07;;
52972;SDS011;38837;48.916;2.336;2023-06-10T01:21:25;6.85;;;4.85;;
52972;SDS011;38837;48.916;2.336;2023-06-10T01:23:28;9.85;;;5.95;;
52972;SDS011;38837;48.916;2.336;2023-06-10T01:25:30;6.63;;;4.93;;
52972;SDS011;38837;48.916;2.336;2023-06-10T01:29:41;6.30;;;4.88;;
52972;SDS011;38837;48.916;2.336;2023-06-10T01:34:02;6.20;;;4.95;;
52972;SDS011;38837;48.916;2.336;2023-06-10T01:36:08;6.32;;;4.80;;
52972;SDS011;38837;48.916;2.336;2023-06-10T01:38:12;6.35;;;4.93;;
52972;SDS011;38837;48.916;2.336;2023-06-10T01:40:16;5.60;;;4.68;;
52972;SDS011;38837;48.916;2.336;2023-06-10T01:42:19;6.05;;;5.05;;
52972;SDS011;38837;48.916;2.336;2023-06-10T01:44:22;6.18;;;5.28;;
52972;SDS011;38837;48.916;2.336;2023-06-10T01:46:24;7.45;;;5.20;;
52972;SDS011;38837;48.916;2.336;2023-06-10T01:48:26;6.80;;;4.72;;
52972;SDS011;38837;48.916;2.336;2023-06-10T01:50:29;7.80;;;5.10;;
52972;SDS011;38837;48.916;2.336;2023-06-10T01:52:30;5.85;;;4.85;;
52972;SDS011;38837;48.916;2.336;2023-06-10T01:54:32;6.43;;;4.40;;
52972;SDS011;38837;48.916;2.336;2023-06-10T01:56:36;10.10;;;5.13;;
52972;SDS011;38837;48.916;2.336;2023-06-10T01:58:37;9.07;;;5.97;;
52972;SDS011;38837;48.916;2.336;2023-06-10T02:00:39;6.53;;;5.10;;
52972;SDS011;38837;48.916;2.336;2023-06-10T02:02:41;6.00;;;5.00;;
52972;SDS011;38837;48.916;2.336;2023-06-10T02:04:44;5.35;;;4.60;;
52972;SDS011;38837;48.916;2.336;2023-06-10T02:06:45;6.30;;;5.18;;
52972;SDS011;38837;48.916;2.336;2023-06-10T02:08:47;8.20;;;5.20;;
52972;SDS011;38837;48.916;2.336;2023-06-10T02:10:51;6.13;;;4.55;;
52972;SDS011;38837;48.916;2.336;2023-06-10T02:12:53;7.68;;;5.00;;
52972;SDS011;38837;48.916;2.336;2023-06-10T02:14:55;5.53;;;4.85;;
52972;SDS011;38837;48.916;2.336;2023-06-10T02:16:56;6.88;;;5.05;;
52972;SDS011;38837;48.916;2.336;2023-06-10T02:18:59;6.05;;;4.70;;
52972;SDS011;38837;48.916;2.336;2023-06-10T02:21:01;4.80;;;4.10;;
52972;SDS011;38837;48.916;2.336;2023-06-10T02:23:03;5.18;;;4.55;;
52972;SDS011;38837;48.916;2.336;2023-06-10T02:25:05;5.15;;;4.55;;
52972;SDS011;38837;48.916;2.336;2023-06-10T02:27:08;5.00;;;4.40;;
52972;SDS011;38837;48.916;2.336;2023-06-10T02:29:10;5.05;;;4.55;;
52972;SDS011;38837;48.916;2.336;2023-06-10T02:31:12;7.05;;;4.68;;
52972;SDS011;38837;48.916;2.336;2023-06-10T02:33:14;5.13;;;4.63;;
52972;SDS011;38837;48.916;2.336;2023-06-10T02:37:22;5.22;;;4.47;;
52972;SDS011;38837;48.916;2.336;2023-06-10T02:39:24;6.70;;;4.43;;
52972;SDS011;38837;48.916;2.336;2023-06-10T02:41:26;6.75;;;5.13;;
52972;SDS011;38837;48.916;2.336;2023-06-10T02:43:28;5.63;;;4.90;;
52972;SDS011;38837;48.916;2.336;2023-06-10T02:45:30;5.55;;;4.68;;
52972;SDS011;38837;48.916;2.336;2023-06-10T02:47:32;4.88;;;4.38;;
52972;SDS011;38837;48.916;2.336;2023-06-10T02:49:34;4.65;;;4.07;;
52972;SDS011;38837;48.916;2.336;2023-06-10T02:51:36;5.55;;;4.32;;
52972;SDS011;38837;48.916;2.336;2023-06-10T02:53:38;7.00;;;4.20;;
52972;SDS011;38837;48.916;2.336;2023-06-10T02:55:40;6.07;;;4.15;;
52972;SDS011;38837;48.916;2.336;2023-06-10T02:57:42;5.57;;;4.35;;
52972;SDS011;38837;48.916;2.336;2023-06-10T02:59:44;4.53;;;3.92;;
52972;SDS011;38837;48.916;2.336;2023-06-10T03:01:46;6.47;;;4.13;;
52972;SDS011;38837;48.916;2.336;2023-06-10T03:03:48;5.15;;;4.30;;
52972;SDS011;38837;48.916;2.336;2023-06-10T03:05:53;6.15;;;4.45;;
52972;SDS011;38837;48.916;2.336;2023-06-10T03:07:55;5.15;;;4.20;;
52972;SDS011;38837;48.916;2.336;2023-06-10T03:09:57;6.03;;;4.32;;
52972;SDS011;38837;48.916;2.336;2023-06-10T03:11:59;5.28;;;4.78;;
52972;SDS011;38837;48.916;2.336;2023-06-10T03:14:02;5.55;;;4.40;;
52972;SDS011;38837;48.916;2.336;2023-06-10T03:16:04;8.10;;;4.20;;
52972;SDS011;38837;48.916;2.336;2023-06-10T03:18:06;4.82;;;3.80;;
52972;SDS011;38837;48.916;2.336;2023-06-10T03:20:08;4.80;;;4.38;;
52972;SDS011;38837;48.916;2.336;2023-06-10T03:22:12;4.88;;;4.07;;
52972;SDS011;38837;48.916;2.336;2023-06-10T03:24:15;4.90;;;4.20;;
52972;SDS011;38837;48.916;2.336;2023-06-10T03:26:18;5.68;;;4.47;;
52972;SDS011;38837;48.916;2.336;2023-06-10T03:28:22;5.63;;;4.40;;
52972;SDS011;38837;48.916;2.336;2023-06-10T03:30:24;5.65;;;4.00;;
52972;SDS011;38837;48.916;2.336;2023-06-10T03:32:26;4.78;;;4.28;;
52972;SDS011;38837;48.916;2.336;2023-06-10T03:34:28;5.20;;;3.95;;
52972;SDS011;38837;48.916;2.336;2023-06-10T03:36:33;5.18;;;4.20;;
52972;SDS011;38837;48.916;2.336;2023-06-10T03:38:35;6.70;;;3.83;;
52972;SDS011;38837;48.916;2.336;2023-06-10T03:40:37;5.28;;;4.18;;
52972;SDS011;38837;48.916;2.336;2023-06-10T03:42:39;5.68;;;4.70;;
52972;SDS011;38837;48.916;2.336;2023-06-10T03:44:41;5.25;;;4.25;;
52972;SDS011;38837;48.916;2.336;2023-06-10T03:46:43;5.47;;;4.13;;
52972;SDS011;38837;48.916;2.336;2023-06-10T03:48:45;6.10;;;4.35;;
52972;SDS011;38837;48.916;2.336;2023-06-10T03:50:47;4.80;;;4.18;;
52972;SDS011;38837;48.916;2.336;2023-06-10T03:52:51;4.70;;;4.15;;
52972;SDS011;38837;48.916;2.336;2023-06-10T03:54:53;5.10;;;4.15;;
52972;SDS011;38837;48.916;2.336;2023-06-10T03:56:55;5.55;;;4.03;;
52972;SDS011;38837;48.916;2.336;2023-06-10T03:58:57;6.30;;;4.40;;
52972;SDS011;38837;48.916;2.336;2023-06-10T04:01:00;4.57;;;3.85;;
52972;SDS011;38837;48.916;2.336;2023-06-10T04:03:02;4.65;;;3.53;;
52972;SDS011;38837;48.916;2.336;2023-06-10T04:05:04;4.55;;;4.03;;
52972;SDS011;38837;48.916;2.336;2023-06-10T04:07:06;5.78;;;4.53;;
52972;SDS011;38837;48.916;2.336;2023-06-10T04:09:10;5.40;;;4.40;;
52972;SDS011;38837;48.916;2.336;2023-06-10T04:11:12;4.45;;;3.70;;
52972;SDS011;38837;48.916;2.336;2023-06-10T04:13:14;5.20;;;4.25;;
52972;SDS011;38837;48.916;2.336;2023-06-10T04:15:16;6.03;;;4.13;;
52972;SDS011;38837;48.916;2.336;2023-06-10T04:17:18;4.32;;;3.92;;
52972;SDS011;38837;48.916;2.336;2023-06-10T04:19:20;4.10;;;3.45;;
52972;SDS011;38837;48.916;2.336;2023-06-10T04:21:22;5.28;;;4.13;;
52972;SDS011;38837;48.916;2.336;2023-06-10T04:23:24;5.43;;;3.90;;
52972;SDS011;38837;48.916;2.336;2023-06-10T04:25:27;4.38;;;3.80;;
52972;SDS011;38837;48.916;2.336;2023-06-10T04:27:29;5.63;;;3.95;;
52972;SDS011;38837;48.916;2.336;2023-06-10T04:29:32;6.18;;;3.95;;
52972;SDS011;38837;48.916;2.336;2023-06-10T04:31:34;4.50;;;3.67;;
52972;SDS011;38837;48.916;2.336;2023-06-10T04:33:36;6.43;;;3.83;;
52972;SDS011;38837;48.916;2.336;2023-06-10T04:35:38;4.80;;;3.70;;
52972;SDS011;38837;48.916;2.336;2023-06-10T04:37:40;6.82;;;4.00;;
52972;SDS011;38837;48.916;2.336;2023-06-10T04:39:42;3.95;;;3.55;;
52972;SDS011;38837;48.916;2.336;2023-06-10T04:41:44;4.35;;;3.95;;
52972;SDS011;38837;48.916;2.336;2023-06-10T04:43:46;5.40;;;3.97;;
52972;SDS011;38837;48.916;2.336;2023-06-10T04:45:48;5.75;;;3.80;;
52972;SDS011;38837;48.916;2.336;2023-06-10T04:47:50;4.97;;;3.65;;
52972;SDS011;38837;48.916;2.336;2023-06-10T04:49:53;5.55;;;3.97;;
52972;SDS011;38837;48.916;2.336;2023-06-10T04:51:55;4.10;;;3.05;;
52972;SDS011;38837;48.916;2.336;2023-06-10T04:53:57;5.32;;;4.07;;
52972;SDS011;38837;48.916;2.336;2023-06-10T04:55:59;4.05;;;3.22;;
52972;SDS011;38837;48.916;2.336;2023-06-10T04:58:01;4.18;;;3.78;;
52972;SDS011;38837;48.916;2.336;2023-06-10T05:00:03;5.28;;;3.78;;
52972;SDS011;38837;48.916;2.336;2023-06-10T05:02:07;4.22;;;3.65;;
52972;SDS011;38837;48.916;2.336;2023-06-10T05:04:09;3.65;;;3.25;;
52972;SDS011;38837;48.916;2.336;2023-06-10T05:06:12;5.07;;;3.75;;
52972;SDS011;38837;48.916;2.336;2023-06-10T05:08:14;6.32;;;3.85;;
52972;SDS011;38837;48.916;2.336;2023-06-10T05:10:16;5.28;;;3.40;;
52972;SDS011;38837;48.916;2.336;2023-06-10T05:12:18;3.65;;;3.30;;
52972;SDS011;38837;48.916;2.336;2023-06-10T05:14:19;4.88;;;3.88;;
52972;SDS011;38837;48.916;2.336;2023-06-10T05:16:22;3.90;;;3.50;;
52972;SDS011;38837;48.916;2.336;2023-06-10T05:18:24;4.28;;;3.53;;
52972;SDS011;38837;48.916;2.336;2023-06-10T05:20:26;4.00;;;3.53;;
52972;SDS011;38837;48.916;2.336;2023-06-10T05:22:29;4.53;;;3.50;;
52972;SDS011;38837;48.916;2.336;2023-06-10T05:24:31;5.20;;;3.90;;
52972;SDS011;38837;48.916;2.336;2023-06-10T05:26:33;6.90;;;4.00;;
52972;SDS011;38837;48.916;2.336;2023-06-10T05:28:38;6.07;;;3.80;;
52972;SDS011;38837;48.916;2.336;2023-06-10T05:30:40;5.50;;;3.50;;
52972;SDS011;38837;48.916;2.336;2023-06-10T05:32:42;4.53;;;3.50;;
52972;SDS011;38837;48.916;2.336;2023-06-10T05:34:44;5.03;;;3.97;;
52972;SDS011;38837;48.916;2.336;2023-06-10T05:36:46;4.32;;;3.67;;
52972;SDS011;38837;48.916;2.336;2023-06-10T05:38:48;3.65;;;3.10;;
52972;SDS011;38837;48.916;2.336;2023-06-10T05:40:50;4.22;;;3.40;;
52972;SDS011;38837;48.916;2.336;2023-06-10T05:42:52;4.18;;;3.42;;
52972;SDS011;38837;48.916;2.336;2023-06-10T05:44:53;3.97;;;3.58;;
52972;SDS011;38837;48.916;2.336;2023-06-10T05:46:55;5.20;;;3.38;;
52972;SDS011;38837;48.916;2.336;2023-06-10T05:48:57;4.53;;;3.55;;
52972;SDS011;38837;48.916;2.336;2023-06-10T05:50:59;3.38;;;3.05;;
52972;SDS011;38837;48.916;2.336;2023-06-10T05:53:01;3.80;;;3.17;;
52972;SDS011;38837;48.916;2.336;2023-06-10T05:55:03;5.05;;;3.65;;
52972;SDS011;38837;48.916;2.336;2023-06-10T05:57:06;3.55;;;3.20;;
52972;SDS011;38837;48.916;2.336;2023-06-10T05:59:08;4.72;;;3.47;;
52972;SDS011;38837;48.916;2.336;2023-06-10T06:01:10;4.32;;;3.70;;
52972;SDS011;38837;48.916;2.336;2023-06-10T06:03:12;4.75;;;3.83;;
52972;SDS011;38837;48.916;2.336;2023-06-10T06:05:14;4.40;;;3.47;;
52972;SDS011;38837;48.916;2.336;2023-06-10T06:07:16;4.78;;;3.53;;
52972;SDS011;38837;48.916;2.336;2023-06-10T06:09:18;4.65;;;3.58;;
52972;SDS011;38837;48.916;2.336;2023-06-10T06:11:20;4.90;;;3.53;;
52972;SDS011;38837;48.916;2.336;2023-06-10T06:13:22;6.57;;;3.88;;
52972;SDS011;38837;48.916;2.336;2023-06-10T06:15:24;5.07;;;3.72;;
52972;SDS011;38837;48.916;2.336;2023-06-10T06:17:26;5.10;;;3.58;;
52972;SDS011;38837;48.916;2.336;2023-06-10T06:19:28;4.57;;;3.75;;
52972;SDS011;38837;48.916;2.336;2023-06-10T06:21:30;4.50;;;3.83;;
52972;SDS011;38837;48.916;2.336;2023-06-10T06:23:32;5.47;;;3.25;;
52972;SDS011;38837;48.916;2.336;2023-06-10T06:25:33;3.55;;;3.00;;
52972;SDS011;38837;48.916;2.336;2023-06-10T06:27:37;6.00;;;3.90;;
52972;SDS011;38837;48.916;2.336;2023-06-10T06:29:38;5.25;;;3.70;;
52972;SDS011;38837;48.916;2.336;2023-06-10T06:31:41;4.75;;;3.70;;
52972;SDS011;38837;48.916;2.336;2023-06-10T06:33:43;4.05;;;3.20;;
52972;SDS011;38837;48.916;2.336;2023-06-10T06:35:45;4.25;;;3.35;;
52972;SDS011;38837;48.916;2.336;2023-06-10T06:37:47;5.07;;;3.25;;
52972;SDS011;38837;48.916;2.336;2023-06-10T06:39:58;4.80;;;3.50;;
52972;SDS011;38837;48.916;2.336;2023-06-10T06:42:04;4.07;;;3.67;;
52972;SDS011;38837;48.916;2.336;2023-06-10T06:44:07;5.88;;;3.55;;
52972;SDS011;38837;48.916;2.336;2023-06-10T06:46:09;5.07;;;3.50;;
52972;SDS011;38837;48.916;2.336;2023-06-10T06:48:11;4.22;;;3.28;;
52972;SDS011;38837;48.916;2.336;2023-06-10T06:50:13;3.95;;;3.35;;
52972;SDS011;38837;48.916;2.336;2023-06-10T06:52:15;3.63;;;3.30;;
52972;SDS011;38837;48.916;2.336;2023-06-10T06:54:17;4.22;;;3.28;;
52972;SDS011;38837;48.916;2.336;2023-06-10T06:56:19;7.70;;;3.10;;
52972;SDS011;38837;48.916;2.336;2023-06-10T06:58:22;3.15;;;2.65;;
52972;SDS011;38837;48.916;2.336;2023-06-10T07:00:24;3.83;;;3.28;;
52972;SDS011;38837;48.916;2.336;2023-06-10T07:02:26;4.85;;;3.70;;
52972;SDS011;38837;48.916;2.336;2023-06-10T07:04:28;6.55;;;3.72;;
52972;SDS011;38837;48.916;2.336;2023-06-10T07:06:30;3.92;;;3.50;;
52972;SDS011;38837;48.916;2.336;2023-06-10T07:08:32;4.97;;;3.15;;
52972;SDS011;38837;48.916;2.336;2023-06-10T07:10:34;4.78;;;3.08;;
52972;SDS011;38837;48.916;2.336;2023-06-10T07:12:36;4.05;;;3.00;;
52972;SDS011;38837;48.916;2.336;2023-06-10T07:14:38;5.00;;;3.40;;
52972;SDS011;38837;48.916;2.336;2023-06-10T07:16:40;4.72;;;3.30;;
52972;SDS011;38837;48.916;2.336;2023-06-10T07:18:42;4.15;;;3.40;;
52972;SDS011;38837;48.916;2.336;2023-06-10T07:20:44;4.43;;;3.58;;
52972;SDS011;38837;48.916;2.336;2023-06-10T07:22:46;5.28;;;3.58;;
52972;SDS011;38837;48.916;2.336;2023-06-10T07:24:47;6.25;;;3.58;;
52972;SDS011;38837;48.916;2.336;2023-06-10T07:26:50;5.70;;;3.53;;
52972;SDS011;38837;48.916;2.336;2023-06-10T07:28:54;6.55;;;3.75;;
52972;SDS011;38837;48.916;2.336;2023-06-10T07:30:55;4.35;;;3.45;;
52972;SDS011;38837;48.916;2.336;2023-06-10T07:32:57;7.22;;;3.28;;
52972;SDS011;38837;48.916;2.336;2023-06-10T07:34:59;5.35;;;3.45;;
52972;SDS011;38837;48.916;2.336;2023-06-10T07:37:01;5.60;;;3.53;;
52972;SDS011;38837;48.916;2.336;2023-06-10T07:39:03;4.88;;;3.55;;
52972;SDS011;38837;48.916;2.336;2023-06-10T07:41:06;4.43;;;2.97;;
52972;SDS011;38837;48.916;2.336;2023-06-10T07:43:07;4.20;;;3.50;;
52972;SDS011;38837;48.916;2.336;2023-06-10T07:45:09;4.25;;;2.90;;
52972;SDS011;38837;48.916;2.336;2023-06-10T07:47:12;6.00;;;4.07;;
52972;SDS011;38837;48.916;2.336;2023-06-10T07:49:14;5.30;;;3.47;;
52972;SDS011;38837;48.916;2.336;2023-06-10T07:51:16;6.45;;;3.30;;
52972;SDS011;38837;48.916;2.336;2023-06-10T07:53:18;4.40;;;3.45;;
52972;SDS011;38837;48.916;2.336;2023-06-10T07:55:20;5.13;;;3.30;;
52972;SDS011;38837;48.916;2.336;2023-06-10T07:57:25;7.57;;;3.40;;
52972;SDS011;38837;48.916;2.336;2023-06-10T07:59:27;4.57;;;3.20;;
52972;SDS011;38837;48.916;2.336;2023-06-10T08:01:29;8.90;;;3.72;;
52972;SDS011;38837;48.916;2.336;2023-06-10T08:03:31;4.13;;;3.42;;
52972;SDS011;38837;48.916;2.336;2023-06-10T08:05:33;5.60;;;3.78;;
52972;SDS011;38837;48.916;2.336;2023-06-10T08:07:36;9.98;;;4.07;;
52972;SDS011;38837;48.916;2.336;2023-06-10T08:09:37;5.68;;;3.33;;
52972;SDS011;38837;48.916;2.336;2023-06-10T08:11:39;6.45;;;4.10;;
52972;SDS011;38837;48.916;2.336;2023-06-10T08:13:41;6.88;;;3.50;;
52972;SDS011;38837;48.916;2.336;2023-06-10T08:15:43;5.97;;;3.25;;
52972;SDS011;38837;48.916;2.336;2023-06-10T08:17:45;7.80;;;3.38;;
52972;SDS011;38837;48.916;2.336;2023-06-10T08:19:47;5.20;;;3.60;;
52972;SDS011;38837;48.916;2.336;2023-06-10T08:21:49;6.25;;;4.00;;
52972;SDS011;38837;48.916;2.336;2023-06-10T08:23:54;7.43;;;3.65;;
52972;SDS011;38837;48.916;2.336;2023-06-10T08:25:57;4.72;;;3.90;;
52972;SDS011;38837;48.916;2.336;2023-06-10T08:27:59;4.15;;;3.53;;
52972;SDS011;38837;48.916;2.336;2023-06-10T08:30:01;7.43;;;3.65;;
52972;SDS011;38837;48.916;2.336;2023-06-10T08:32:03;6.50;;;3.53;;
52972;SDS011;38837;48.916;2.336;2023-06-10T08:34:05;4.07;;;3.30;;
52972;SDS011;38837;48.916;2.336;2023-06-10T08:36:07;5.38;;;3.63;;
52972;SDS011;38837;48.916;2.336;2023-06-10T08:38:09;9.10;;;4.00;;
52972;SDS011;38837;48.916;2.336;2023-06-10T08:40:11;5.63;;;3.60;;
52972;SDS011;38837;48.916;2.336;2023-06-10T08:42:18;9.32;;;3.70;;
52972;SDS011;38837;48.916;2.336;2023-06-10T08:44:29;5.65;;;3.30;;
52972;SDS011;38837;48.916;2.336;2023-06-10T08:46:32;8.73;;;3.55;;
52972;SDS011;38837;48.916;2.336;2023-06-10T08:48:35;5.97;;;3.65;;
52972;SDS011;38837;48.916;2.336;2023-06-10T08:50:43;6.25;;;3.72;;
52972;SDS011;38837;48.916;2.336;2023-06-10T08:52:46;6.10;;;3.88;;
52972;SDS011;38837;48.916;2.336;2023-06-10T08:54:59;8.52;;;4.25;;
52972;SDS011;38837;48.916;2.336;2023-06-10T08:57:01;8.60;;;4.13;;
52972;SDS011;38837;48.916;2.336;2023-06-10T08:59:07;6.07;;;4.00;;
52972;SDS011;38837;48.916;2.336;2023-06-10T09:01:10;10.80;;;4.60;;
52972;SDS011;38837;48.916;2.336;2023-06-10T09:03:13;6.10;;;3.80;;
52972;SDS011;38837;48.916;2.336;2023-06-10T09:05:15;8.15;;;3.50;;
52972;SDS011;38837;48.916;2.336;2023-06-10T09:07:18;7.07;;;3.95;;
52972;SDS011;38837;48.916;2.336;2023-06-10T09:09:20;5.63;;;3.95;;
52972;SDS011;38837;48.916;2.336;2023-06-10T09:11:22;5.75;;;3.95;;
52972;SDS011;38837;48.916;2.336;2023-06-10T09:13:24;5.10;;;3.47;;
52972;SDS011;38837;48.916;2.336;2023-06-10T09:15:26;5.93;;;4.15;;
52972;SDS011;38837;48.916;2.336;2023-06-10T09:17:28;4.97;;;3.50;;
52972;SDS011;38837;48.916;2.336;2023-06-10T09:19:30;8.55;;;3.90;;
52972;SDS011;38837;48.916;2.336;2023-06-10T09:21:33;11.25;;;3.70;;
52972;SDS011;38837;48.916;2.336;2023-06-10T09:23:37;7.35;;;3.15;;
52972;SDS011;38837;48.916;2.336;2023-06-10T09:25:39;12.00;;;4.13;;
52972;SDS011;38837;48.916;2.336;2023-06-10T09:27:44;5.68;;;4.00;;
52972;SDS011;38837;48.916;2.336;2023-06-10T09:29:52;7.85;;;3.42;;
52972;SDS011;38837;48.916;2.336;2023-06-10T09:31:55;5.50;;;4.10;;
52972;SDS011;38837;48.916;2.336;2023-06-10T09:36:09;10.80;;;4.97;;
52972;SDS011;38837;48.916;2.336;2023-06-10T09:38:11;7.55;;;3.92;;
52972;SDS011;38837;48.916;2.336;2023-06-10T09:40:13;8.15;;;3.85;;
52972;SDS011;38837;48.916;2.336;2023-06-10T09:42:15;6.75;;;4.75;;
52972;SDS011;38837;48.916;2.336;2023-06-10T09:44:20;8.55;;;4.47;;
52972;SDS011;38837;48.916;2.336;2023-06-10T09:46:30;7.30;;;5.22;;
52972;SDS011;38837;48.916;2.336;2023-06-10T09:48:40;4.75;;;3.97;;
52972;SDS011;38837;48.916;2.336;2023-06-10T09:50:48;7.32;;;3.42;;
52972;SDS011;38837;48.916;2.336;2023-06-10T09:52:50;8.15;;;3.60;;
52972;SDS011;38837;48.916;2.336;2023-06-10T09:54:53;6.03;;;3.80;;
52972;SDS011;38837;48.916;2.336;2023-06-10T09:57:00;6.80;;;3.90;;
52972;SDS011;38837;48.916;2.336;2023-06-10T09:59:11;6.68;;;3.88;;
52972;SDS011;38837;48.916;2.336;2023-06-10T10:01:13;6.18;;;4.03;;
52972;SDS011;38837;48.916;2.336;2023-06-10T10:03:21;6.50;;;3.77;;
52972;SDS011;38837;48.916;2.336;2023-06-10T10:05:24;4.65;;;3.67;;
52972;SDS011;38837;48.916;2.336;2023-06-10T10:07:27;5.10;;;3.70;;
52972;SDS011;38837;48.916;2.336;2023-06-10T10:09:33;12.10;;;3.72;;
52972;SDS011;38837;48.916;2.336;2023-06-10T10:11:36;6.43;;;4.18;;
52972;SDS011;38837;48.916;2.336;2023-06-10T10:13:38;7.45;;;3.90;;
52972;SDS011;38837;48.916;2.336;2023-06-10T10:15:41;8.85;;;4.25;;
52972;SDS011;38837;48.916;2.336;2023-06-10T10:18:00;9.88;;;3.47;;
52972;SDS011;38837;48.916;2.336;2023-06-10T10:20:12;8.32;;;3.58;;
52972;SDS011;38837;48.916;2.336;2023-06-10T10:22:20;8.85;;;4.05;;
52972;SDS011;38837;48.916;2.336;2023-06-10T10:24:37;12.05;;;3.63;;
52972;SDS011;38837;48.916;2.336;2023-06-10T10:26:42;8.23;;;4.30;;
52972;SDS011;38837;48.916;2.336;2023-06-10T10:29:05;6.53;;;3.85;;
52972;SDS011;38837;48.916;2.336;2023-06-10T10:31:13;8.93;;;3.83;;
52972;SDS011;38837;48.916;2.336;2023-06-10T10:33:29;9.50;;;3.75;;
52972;SDS011;38837;48.916;2.336;2023-06-10T10:35:37;7.25;;;4.10;;
52972;SDS011;38837;48.916;2.336;2023-06-10T10:37:40;11.30;;;4.40;;
52972;SDS011;38837;48.916;2.336;2023-06-10T10:39:43;11.57;;;4.25;;
52972;SDS011;38837;48.916;2.336;2023-06-10T10:41:46;10.98;;;4.15;;
52972;SDS011;38837;48.916;2.336;2023-06-10T10:43:49;15.48;;;4.10;;
52972;SDS011;38837;48.916;2.336;2023-06-10T10:46:02;4.72;;;3.55;;
52972;SDS011;38837;48.916;2.336;2023-06-10T10:48:13;7.88;;;4.00;;
52972;SDS011;38837;48.916;2.336;2023-06-10T10:50:17;9.27;;;4.73;;
52972;SDS011;38837;48.916;2.336;2023-06-10T10:52:20;11.27;;;3.67;;
52972;SDS011;38837;48.916;2.336;2023-06-10T10:54:33;7.90;;;3.95;;
52972;SDS011;38837;48.916;2.336;2023-06-10T10:56:36;12.25;;;4.28;;
52972;SDS011;38837;48.916;2.336;2023-06-10T10:58:38;9.15;;;4.18;;
52972;SDS011;38837;48.916;2.336;2023-06-10T11:00:44;12.68;;;4.60;;
52972;SDS011;38837;48.916;2.336;2023-06-10T11:02:46;10.35;;;4.55;;
52972;SDS011;38837;48.916;2.336;2023-06-10T11:04:50;14.50;;;7.03;;
52972;SDS011;38837;48.916;2.336;2023-06-10T11:06:52;19.88;;;7.53;;
52972;SDS011;38837;48.916;2.336;2023-06-10T11:08:55;24.08;;;7.63;;
52972;SDS011;38837;48.916;2.336;2023-06-10T11:11:17;19.38;;;6.35;;
52972;SDS011;38837;48.916;2.336;2023-06-10T11:13:25;13.82;;;6.30;;
52972;SDS011;38837;48.916;2.336;2023-06-10T11:15:28;16.55;;;6.68;;
52972;SDS011;38837;48.916;2.336;2023-06-10T11:17:31;15.90;;;5.97;;
52972;SDS011;38837;48.916;2.336;2023-06-10T11:19:33;16.33;;;5.90;;
52972;SDS011;38837;48.916;2.336;2023-06-10T11:24:00;7.13;;;5.38;;
52972;SDS011;38837;48.916;2.336;2023-06-10T11:28:33;17.92;;;7.70;;
52972;SDS011;38837;48.916;2.336;2023-06-10T11:30:35;14.32;;;10.32;;
52972;SDS011;38837;48.916;2.336;2023-06-10T11:32:37;13.52;;;7.78;;
52972;SDS011;38837;48.916;2.336;2023-06-10T11:34:40;10.57;;;7.90;;
52972;SDS011;38837;48.916;2.336;2023-06-10T11:36:43;12.73;;;8.68;;
52972;SDS011;38837;48.916;2.336;2023-06-10T11:38:47;9.82;;;6.72;;
52972;SDS011;38837;48.916;2.336;2023-06-10T11:40:51;12.98;;;6.40;;
52972;SDS011;38837;48.916;2.336;2023-06-10T11:42:53;22.33;;;6.18;;
52972;SDS011;38837;48.916;2.336;2023-06-10T11:44:55;14.45;;;5.95;;
52972;SDS011;38837;48.916;2.336;2023-06-10T11:46:57;19.52;;;7.18;;
52972;SDS011;38837;48.916;2.336;2023-06-10T11:48:59;16.23;;;7.00;;
52972;SDS011;38837;48.916;2.336;2023-06-10T11:51:06;12.73;;;6.65;;
52972;SDS011;38837;48.916;2.336;2023-06-10T11:53:09;12.45;;;6.07;;
52972;SDS011;38837;48.916;2.336;2023-06-10T11:55:11;14.77;;;6.80;;
52972;SDS011;38837;48.916;2.336;2023-06-10T11:57:13;17.23;;;6.90;;
52972;SDS011;38837;48.916;2.336;2023-06-10T11:59:15;22.83;;;6.05;;
52972;SDS011;38837;48.916;2.336;2023-06-10T12:01:21;37.20;;;6.10;;
52972;SDS011;38837;48.916;2.336;2023-06-10T12:03:35;30.33;;;6.82;;
52972;SDS011;38837;48.916;2.336;2023-06-10T12:05:39;26.77;;;7.03;;
52972;SDS011;38837;48.916;2.336;2023-06-10T12:07:41;24.13;;;5.70;;
52972;SDS011;38837;48.916;2.336;2023-06-10T12:09:43;21.70;;;6.47;;
52972;SDS011;38837;48.916;2.336;2023-06-10T12:11:45;15.57;;;6.07;;
52972;SDS011;38837;48.916;2.336;2023-06-10T12:13:49;22.17;;;5.85;;
52972;SDS011;38837;48.916;2.336;2023-06-10T12:15:52;17.40;;;5.10;;
52972;SDS011;38837;48.916;2.336;2023-06-10T12:17:54;18.92;;;5.38;;
52972;SDS011;38837;48.916;2.336;2023-06-10T12:19:56;14.73;;;5.15;;
52972;SDS011;38837;48.916;2.336;2023-06-10T12:22:00;11.45;;;5.30;;
52972;SDS011;38837;48.916;2.336;2023-06-10T12:24:08;13.73;;;4.70;;
52972;SDS011;38837;48.916;2.336;2023-06-10T12:26:10;11.63;;;4.95;;
52972;SDS011;38837;48.916;2.336;2023-06-10T12:28:12;14.77;;;4.70;;
52972;SDS011;38837;48.916;2.336;2023-06-10T12:30:22;9.82;;;5.05;;
52972;SDS011;38837;48.916;2.336;2023-06-10T12:32:35;10.30;;;4.30;;
52972;SDS011;38837;48.916;2.336;2023-06-10T12:34:38;12.52;;;5.22;;
52972;SDS011;38837;48.916;2.336;2023-06-10T12:36:47;7.70;;;4.90;;
52972;SDS011;38837;48.916;2.336;2023-06-10T12:38:52;13.38;;;4.97;;